Time;durP1;ratioP1;P1;durP2;ratioP2;P2;SDS_P1;SDS_P2;PMS_P1;PMS_P2;Temp;Humidity;BMP_temperature;BMP_pressure;BME280_temperature;BME280_humidity;BME280_pressure;Samples;Min_cycle;Max_cycle;Signal;HPM_P1;HPM_P2
2023/07/31 00:01:01;;;;;;;;;;;20.30;69.60;;;;;;4992411;28;19918;-70
2023/07/31 00:03:26;;;;;;;;;;;20.30;69.60;;;;;;4991312;28;20320;-70
2023/07/31 00:05:52;;;;;;;;;;;20.30;69.70;;;;;;4991670;28;19926;-70
2023/07/31 00:08:17;;;;;;;;;;;20.30;69.80;;;;;;4991797;28;19921;-70
2023/07/31 00:10:43;;;;;;;;;;;20.30;69.90;;;;;;4992123;28;19918;-69
2023/07/31 00:13:08;;;;;;;;;;;20.30;70.00;;;;;;4991294;28;20384;-69
2023/07/31 00:15:34;;;;;;;;;;;20.30;70.00;;;;;;4991925;28;20278;-69
2023/07/31 00:18:00;;;;;;;;;;;20.30;70.20;;;;;;4992161;28;19910;-69
2023/07/31 00:20:26;;;;;;;;;;;20.30;70.20;;;;;;4991610;28;20349;-69
2023/07/31 00:22:51;;;;;;;;;;;20.30;70.30;;;;;;4974444;28;19916;-68
2023/07/31 00:25:17;;;;;;;;;;;20.30;70.30;;;;;;4991351;28;20141;-68
2023/07/31 00:27:44;;;;;;;;;;;20.30;70.20;;;;;;4991578;28;19910;-68
2023/07/31 00:30:10;;;;;;;;;;;20.40;70.40;;;;;;4991478;28;19918;-68
2023/07/31 00:32:35;;;;;;;;;;;20.40;70.40;;;;;;4991790;28;19917;-68
2023/07/31 00:35:01;;;;;;;;;;;20.40;70.30;;;;;;4991495;28;19960;-67
2023/07/31 00:37:27;;;;;;;;;;;20.40;70.40;;;;;;4991807;28;19910;-67
2023/07/31 00:39:52;;;;;;;;;;;20.40;70.40;;;;;;4995062;28;19926;-68
2023/07/31 00:42:18;;;;;;;;;;;20.50;70.60;;;;;;4995530;28;19921;-68
2023/07/31 00:44:43;;;;;;;;;;;20.40;70.40;;;;;;4994690;28;19965;-68
2023/07/31 00:47:09;;;;;;;;;;;20.50;70.50;;;;;;4995401;28;19910;-68
2023/07/31 00:49:34;;;;;;;;;;;20.50;70.60;;;;;;4994954;28;19917;-67
2023/07/31 00:52:00;;;;;;;;;;;20.50;70.60;;;;;;4995403;28;19914;-68
2023/07/31 00:54:26;;;;;;;;;;;20.50;70.60;;;;;;4994596;28;19910;-68
2023/07/31 00:56:52;;;;;;;;;;;20.50;70.60;;;;;;4995725;28;20281;-67
2023/07/31 00:59:18;;;;;;;;;;;20.50;70.60;;;;;;4995065;28;20444;-68
2023/07/31 01:01:44;;;;;;;;;;;20.50;70.60;;;;;;4978157;28;19914;-68
2023/07/31 01:04:10;;;;;;;;;;;20.50;70.70;;;;;;4994387;28;20008;-68
2023/07/31 01:06:50;;;;;;;;;;;20.50;70.60;;;;;;4995722;28;20365;-68
2023/07/31 01:09:16;;;;;;;;;;;20.50;70.60;;;;;;4977193;28;20362;-68
2023/07/31 01:12:08;;;;;;;;;;;20.40;70.70;;;;;;4995251;28;19920;-68
2023/07/31 01:14:33;;;;;;;;;;;20.50;70.60;;;;;;4990290;28;20024;-68
2023/07/31 01:16:58;;;;;;;;;;;20.50;70.50;;;;;;4994898;28;19976;-68
2023/07/31 01:19:26;;;;;;;;;;;20.40;70.50;;;;;;4994579;28;19933;-68
2023/07/31 01:22:08;;;;;;;;;;;20.40;70.50;;;;;;4995136;28;19924;-68
2023/07/31 01:24:40;;;;;;;;;;;20.40;70.40;;;;;;4994080;28;19918;-68
2023/07/31 01:27:17;;;;;;;;;;;20.30;70.30;;;;;;4994709;28;20000;-68
2023/07/31 01:29:45;;;;;;;;;;;20.30;70.40;;;;;;4993989;28;19910;-68
2023/07/31 01:32:11;;;;;;;;;;;20.30;70.30;;;;;;4994771;28;19921;-68
2023/07/31 01:34:37;;;;;;;;;;;20.20;70.40;;;;;;4994288;28;19909;-68
2023/07/31 01:37:03;;;;;;;;;;;20.30;70.40;;;;;;4994073;28;19913;-68
2023/07/31 01:39:28;;;;;;;;;;;20.20;70.20;;;;;;4994266;28;19914;-68
2023/07/31 01:41:54;;;;;;;;;;;20.20;70.30;;;;;;4994210;28;19914;-68
2023/07/31 01:44:19;;;;;;;;;;;20.20;70.20;;;;;;4993885;28;19918;-68
2023/07/31 01:46:45;;;;;;;;;;;20.10;70.30;;;;;;4994650;28;19968;-68
2023/07/31 01:49:10;;;;;;;;;;;20.10;70.10;;;;;;4993524;28;20353;-68
2023/07/31 01:51:36;;;;;;;;;;;20.10;70.30;;;;;;4994374;28;19918;-67
2023/07/31 01:54:01;;;;;;;;;;;20.10;70.40;;;;;;4994158;28;19916;-67
2023/07/31 01:56:27;;;;;;;;;;;20.10;70.30;;;;;;4993977;28;20034;-67
2023/07/31 01:58:52;;;;;;;;;;;20.10;70.20;;;;;;4993981;28;19914;-67
2023/07/31 02:01:18;;;;;;;;;;;20.00;70.10;;;;;;4994470;28;19965;-67
2023/07/31 02:03:43;;;;;;;;;;;20.00;70.00;;;;;;4993593;28;20388;-67
2023/07/31 02:06:09;;;;;;;;;;;20.00;69.90;;;;;;4993752;28;19958;-68
2023/07/31 02:08:34;;;;;;;;;;;19.90;69.80;;;;;;4993593;28;19910;-68
2023/07/31 02:11:00;;;;;;;;;;;19.80;69.70;;;;;;4994117;28;19957;-68
2023/07/31 02:13:25;;;;;;;;;;;19.80;69.80;;;;;;4993479;28;20084;-68
2023/07/31 02:15:51;;;;;;;;;;;19.80;69.80;;;;;;4993608;28;19925;-67
2023/07/31 02:18:16;;;;;;;;;;;19.70;69.70;;;;;;4993425;28;20255;-68
2023/07/31 02:20:42;;;;;;;;;;;19.70;69.80;;;;;;4993770;28;20293;-68
2023/07/31 02:23:07;;;;;;;;;;;19.60;69.90;;;;;;4993465;28;19928;-68
2023/07/31 02:25:33;;;;;;;;;;;19.50;69.90;;;;;;4993471;28;20371;-68
2023/07/31 02:27:58;;;;;;;;;;;19.50;69.80;;;;;;4975361;28;20000;-68
2023/07/31 02:30:24;;;;;;;;;;;19.40;69.90;;;;;;4993571;28;20082;-68
2023/07/31 02:32:49;;;;;;;;;;;19.40;70.00;;;;;;4993412;28;19914;-67
2023/07/31 02:35:15;;;;;;;;;;;19.30;70.10;;;;;;4993331;28;19938;-68
2023/07/31 02:37:44;;;;;;;;;;;19.30;70.20;;;;;;4992634;28;19964;-69
2023/07/31 02:40:09;;;;;;;;;;;19.30;70.40;;;;;;4993125;28;19922;-69
2023/07/31 02:42:35;;;;;;;;;;;19.20;70.30;;;;;;4993211;28;20373;-70
2023/07/31 02:45:00;;;;;;;;;;;19.20;70.60;;;;;;4992887;28;20020;-71
2023/07/31 02:47:26;;;;;;;;;;;19.20;70.70;;;;;;4992780;28;20009;-71
2023/07/31 02:49:51;;;;;;;;;;;19.20;70.80;;;;;;4992436;28;19922;-72
2023/07/31 02:52:17;;;;;;;;;;;19.20;70.90;;;;;;4992957;28;19975;-71
2023/07/31 02:54:42;;;;;;;;;;;19.20;70.90;;;;;;4992790;28;19910;-72
2023/07/31 02:57:08;;;;;;;;;;;19.10;70.90;;;;;;4992663;28;20278;-73
2023/07/31 02:59:33;;;;;;;;;;;19.20;71.00;;;;;;4975076;28;19910;-72
2023/07/31 03:01:58;;;;;;;;;;;19.10;71.00;;;;;;4992622;28;19921;-72
2023/07/31 03:04:24;;;;;;;;;;;19.10;71.10;;;;;;4992602;28;19973;-73
2023/07/31 03:06:49;;;;;;;;;;;19.10;71.20;;;;;;4993290;28;20313;-72
2023/07/31 03:09:15;;;;;;;;;;;19.10;71.30;;;;;;4992017;28;19936;-73
2023/07/31 03:11:40;;;;;;;;;;;19.10;71.30;;;;;;4992855;28;20001;-72
2023/07/31 03:14:06;;;;;;;;;;;19.10;71.40;;;;;;4992425;28;19917;-73
2023/07/31 03:16:31;;;;;;;;;;;19.10;71.40;;;;;;4993053;28;20266;-73
2023/07/31 03:18:57;;;;;;;;;;;19.10;71.50;;;;;;4991989;28;19924;-73
2023/07/31 03:21:23;;;;;;;;;;;19.10;71.50;;;;;;4992773;28;19947;-73
2023/07/31 03:23:48;;;;;;;;;;;19.20;71.60;;;;;;4992028;28;19981;-73
2023/07/31 03:26:13;;;;;;;;;;;19.20;71.70;;;;;;4992768;28;20353;-73
2023/07/31 03:28:39;;;;;;;;;;;19.20;71.90;;;;;;4974219;28;20400;-74
2023/07/31 03:31:04;;;;;;;;;;;19.30;71.90;;;;;;4992922;28;19914;-74
2023/07/31 03:33:30;;;;;;;;;;;19.30;71.90;;;;;;4992160;28;19913;-74
2023/07/31 03:35:55;;;;;;;;;;;19.30;72.00;;;;;;4992428;28;19914;-74
2023/07/31 03:38:21;;;;;;;;;;;19.40;72.10;;;;;;4991768;28;19918;-74
2023/07/31 03:40:46;;;;;;;;;;;19.40;72.10;;;;;;4992455;28;20007;-74
2023/07/31 03:43:12;;;;;;;;;;;19.50;72.20;;;;;;4992176;28;19936;-74
2023/07/31 03:45:38;;;;;;;;;;;19.50;72.30;;;;;;4992280;28;19924;-74
2023/07/31 03:48:04;;;;;;;;;;;19.60;72.30;;;;;;4991947;28;19953;-74
2023/07/31 03:50:29;;;;;;;;;;;19.60;72.30;;;;;;4991587;28;19918;-74
2023/07/31 03:52:55;;;;;;;;;;;19.70;72.40;;;;;;4992073;28;19910;-75
2023/07/31 03:55:21;;;;;;;;;;;19.70;72.40;;;;;;4992080;28;19921;-74
2023/07/31 03:57:47;;;;;;;;;;;19.80;72.40;;;;;;4991954;28;19964;-75
2023/07/31 04:00:12;;;;;;;;;;;19.80;72.40;;;;;;4991786;28;20330;-74
2023/07/31 04:02:38;;;;;;;;;;;19.90;72.50;;;;;;4992028;28;20320;-74
2023/07/31 04:05:03;;;;;;;;;;;20.00;72.50;;;;;;4991838;28;19988;-74
2023/07/31 04:07:29;;;;;;;;;;;19.90;72.40;;;;;;4991996;28;20284;-74
2023/07/31 04:09:54;;;;;;;;;;;20.00;72.50;;;;;;4991265;28;19918;-74
2023/07/31 04:12:19;;;;;;;;;;;20.10;72.50;;;;;;4993298;28;19910;-74
2023/07/31 04:14:45;;;;;;;;;;;20.10;72.50;;;;;;4995981;28;20378;-74
2023/07/31 04:17:10;;;;;;;;;;;20.20;72.40;;;;;;4995872;28;19910;-73
2023/07/31 04:19:36;;;;;;;;;;;20.20;72.40;;;;;;4995066;28;20362;-73
2023/07/31 04:22:01;;;;;;;;;;;20.30;72.40;;;;;;4995908;28;20420;-73
2023/07/31 04:24:27;;;;;;;;;;;20.30;72.40;;;;;;4995464;28;19913;-73
2023/07/31 04:26:53;;;;;;;;;;;20.30;72.30;;;;;;4996166;28;20289;-73
2023/07/31 04:29:18;;;;;;;;;;;20.30;72.20;;;;;;4995531;28;20301;-74
2023/07/31 04:31:44;;;;;;;;;;;20.30;72.20;;;;;;4993474;28;19918;-73
2023/07/31 04:34:09;;;;;;;;;;;20.40;72.10;;;;;;4976672;28;19961;-73
2023/07/31 04:36:35;;;;;;;;;;;20.40;72.10;;;;;;4995007;28;20012;-73
2023/07/31 04:39:00;;;;;;;;;;;20.40;72.00;;;;;;4995454;28;19917;-74
2023/07/31 04:41:26;;;;;;;;;;;20.40;72.10;;;;;;4993755;28;19925;-73
2023/07/31 04:43:51;;;;;;;;;;;20.40;72.10;;;;;;4994923;28;20499;-73
2023/07/31 04:46:17;;;;;;;;;;;20.40;72.00;;;;;;4995760;28;19918;-73
2023/07/31 04:48:42;;;;;;;;;;;20.50;71.90;;;;;;4993214;28;19925;-73
2023/07/31 04:51:09;;;;;;;;;;;20.50;71.90;;;;;;4995180;28;19952;-73
2023/07/31 04:53:34;;;;;;;;;;;20.50;71.90;;;;;;4994568;28;20000;-72
2023/07/31 04:56:00;;;;;;;;;;;20.40;71.90;;;;;;4995485;28;20005;-73
2023/07/31 04:58:25;;;;;;;;;;;20.50;71.90;;;;;;4977715;28;19964;-73
2023/07/31 05:00:51;;;;;;;;;;;20.50;71.90;;;;;;4994852;28;20026;-73
2023/07/31 05:03:16;;;;;;;;;;;20.50;72.00;;;;;;4977345;28;19922;-73
2023/07/31 05:05:41;;;;;;;;;;;20.50;71.90;;;;;;5002351;28;19922;-72
2023/07/31 05:08:07;;;;;;;;;;;20.60;71.90;;;;;;4992044;28;19957;-72
2023/07/31 05:10:32;;;;;;;;;;;20.60;71.90;;;;;;4993718;28;19942;-73
2023/07/31 05:12:58;;;;;;;;;;;20.70;72.00;;;;;;4994808;28;20009;-73
2023/07/31 05:15:23;;;;;;;;;;;20.70;71.90;;;;;;4994729;28;20012;-73
2023/07/31 05:17:49;;;;;;;;;;;20.70;71.80;;;;;;4994104;28;19914;-73
2023/07/31 05:20:14;;;;;;;;;;;20.70;71.70;;;;;;4994593;28;19917;-71
2023/07/31 05:22:40;;;;;;;;;;;20.70;71.60;;;;;;4994483;28;19913;-71
2023/07/31 05:25:06;;;;;;;;;;;20.70;71.60;;;;;;4993657;28;19922;-71
2023/07/31 05:27:31;;;;;;;;;;;20.70;71.60;;;;;;4994712;28;20064;-71
2023/07/31 05:29:57;;;;;;;;;;;20.70;71.60;;;;;;4994608;28;20309;-71
2023/07/31 05:32:23;;;;;;;;;;;20.80;71.70;;;;;;4991594;28;19918;-71
2023/07/31 05:34:52;;;;;;;;;;;20.80;71.70;;;;;;4993634;28;20008;-70
2023/07/31 05:37:26;;;;;;;;;;;20.90;71.60;;;;;;4994625;28;19925;-71
2023/07/31 05:39:52;;;;;;;;;;;20.90;71.50;;;;;;4994289;28;19921;-70
2023/07/31 05:42:17;;;;;;;;;;;20.90;71.50;;;;;;4994148;28;20301;-70
2023/07/31 05:44:43;;;;;;;;;;;20.90;71.50;;;;;;4994103;28;20345;-70
2023/07/31 05:47:09;;;;;;;;;;;21.00;71.30;;;;;;4977082;28;19996;-69
2023/07/31 05:49:34;;;;;;;;;;;21.00;71.30;;;;;;4994132;28;19917;-70
2023/07/31 05:52:00;;;;;;;;;;;21.00;71.30;;;;;;4994245;28;19968;-70
2023/07/31 05:54:26;;;;;;;;;;;21.00;71.30;;;;;;4976569;28;19922;-71
2023/07/31 05:56:51;;;;;;;;;;;21.10;71.30;;;;;;4994772;28;19914;-72
2023/07/31 05:59:17;;;;;;;;;;;21.00;71.20;;;;;;4994134;28;19914;-73
2023/07/31 06:01:43;;;;;;;;;;;21.00;71.10;;;;;;4993731;28;20279;-72
2023/07/31 06:04:08;;;;;;;;;;;21.00;71.30;;;;;;4993584;28;20017;-72
2023/07/31 06:06:34;;;;;;;;;;;20.90;71.20;;;;;;4996347;28;19917;-71
2023/07/31 06:08:59;;;;;;;;;;;20.90;71.30;;;;;;4972245;28;20059;-72
2023/07/31 06:11:25;;;;;;;;;;;20.90;71.30;;;;;;4992208;28;19918;-71
2023/07/31 06:13:50;;;;;;;;;;;20.80;71.40;;;;;;4993106;28;20404;-71
2023/07/31 06:16:16;;;;;;;;;;;20.90;71.50;;;;;;4992651;28;19918;-72
2023/07/31 06:18:42;;;;;;;;;;;20.90;71.40;;;;;;4993110;28;19909;-71
2023/07/31 06:21:09;;;;;;;;;;;20.80;71.30;;;;;;4993278;28;20033;-71
2023/07/31 06:23:34;;;;;;;;;;;20.90;71.50;;;;;;4972987;28;19921;-71
2023/07/31 06:26:00;;;;;;;;;;;20.90;71.40;;;;;;4990787;28;19928;-71
2023/07/31 06:28:29;;;;;;;;;;;20.90;71.50;;;;;;4973871;28;19914;-69
2023/07/31 06:30:54;;;;;;;;;;;21.00;71.50;;;;;;4988782;28;19929;-69
2023/07/31 06:33:23;;;;;;;;;;;21.00;71.70;;;;;;4974163;28;19914;-70
2023/07/31 06:35:49;;;;;;;;;;;21.10;71.90;;;;;;4992352;28;19924;-70
2023/07/31 06:38:14;;;;;;;;;;;21.10;71.80;;;;;;4986860;28;19914;-69
2023/07/31 06:40:40;;;;;;;;;;;21.10;71.70;;;;;;4992097;28;20020;-69
2023/07/31 06:43:08;;;;;;;;;;;21.10;71.40;;;;;;4992282;28;19914;-69
2023/07/31 06:45:34;;;;;;;;;;;21.10;71.40;;;;;;4985366;28;19926;-69
2023/07/31 06:48:01;;;;;;;;;;;21.20;71.40;;;;;;4983794;28;20037;-69
2023/07/31 06:50:27;;;;;;;;;;;21.10;71.30;;;;;;4992981;28;20001;-69
2023/07/31 06:52:53;;;;;;;;;;;21.10;71.30;;;;;;4990770;28;19917;-69
2023/07/31 06:55:19;;;;;;;;;;;21.10;71.40;;;;;;4992430;28;19925;-69
2023/07/31 06:57:45;;;;;;;;;;;21.10;71.40;;;;;;4992190;28;19946;-69
2023/07/31 07:00:11;;;;;;;;;;;21.00;71.50;;;;;;4991180;28;19918;-69
2023/07/31 07:02:36;;;;;;;;;;;21.10;71.60;;;;;;4992118;28;20358;-69
2023/07/31 07:05:02;;;;;;;;;;;21.10;71.70;;;;;;4992099;28;20361;-69
2023/07/31 07:07:28;;;;;;;;;;;21.10;71.90;;;;;;4992041;28;19929;-69
2023/07/31 07:09:53;;;;;;;;;;;21.20;72.10;;;;;;4992589;28;20020;-69
2023/07/31 07:12:19;;;;;;;;;;;21.30;72.10;;;;;;4992033;28;19910;-69
2023/07/31 07:14:46;;;;;;;;;;;21.30;71.90;;;;;;4992160;28;19914;-69
2023/07/31 07:17:12;;;;;;;;;;;21.30;71.80;;;;;;4992641;28;19941;-69
2023/07/31 07:19:40;;;;;;;;;;;21.40;72.00;;;;;;4991439;28;20023;-69
2023/07/31 07:22:05;;;;;;;;;;;21.40;72.00;;;;;;4992183;28;20013;-69
2023/07/31 07:24:31;;;;;;;;;;;21.40;71.90;;;;;;4989438;28;20008;-69
2023/07/31 07:26:56;;;;;;;;;;;21.40;71.80;;;;;;4992314;28;19924;-70
2023/07/31 07:29:22;;;;;;;;;;;21.40;71.90;;;;;;4990974;28;19957;-69
2023/07/31 07:31:47;;;;;;;;;;;21.40;72.10;;;;;;4992384;28;19929;-70
2023/07/31 07:34:12;;;;;;;;;;;21.40;72.40;;;;;;4989726;28;19920;-69
2023/07/31 07:36:38;;;;;;;;;;;21.50;72.70;;;;;;4991149;28;19921;-70
2023/07/31 07:39:03;;;;;;;;;;;21.70;72.90;;;;;;4991747;28;19917;-75
2023/07/31 07:41:29;;;;;;;;;;;21.80;73.00;;;;;;4990274;28;19921;-75
2023/07/31 07:43:54;;;;;;;;;;;21.80;72.70;;;;;;4990656;28;20009;-75
2023/07/31 07:46:20;;;;;;;;;;;21.90;72.50;;;;;;4989783;28;19924;-75
2023/07/31 07:48:45;;;;;;;;;;;21.90;72.30;;;;;;4991412;28;19924;-74
2023/07/31 07:51:11;;;;;;;;;;;21.90;72.30;;;;;;5008555;28;19924;-75
2023/07/31 07:53:36;;;;;;;;;;;21.80;71.70;;;;;;4986822;28;19924;-75
2023/07/31 07:56:02;;;;;;;;;;;21.70;71.60;;;;;;5001983;28;20301;-74
2023/07/31 07:58:28;;;;;;;;;;;21.70;71.40;;;;;;4991411;28;19918;-74
2023/07/31 08:00:53;;;;;;;;;;;21.50;71.70;;;;;;4998593;28;19917;-74
2023/07/31 08:03:19;;;;;;;;;;;21.50;71.70;;;;;;4987620;28;20416;-75
2023/07/31 08:05:44;;;;;;;;;;;21.50;71.50;;;;;;4991091;28;19922;-74
2023/07/31 08:08:14;;;;;;;;;;;21.40;71.70;;;;;;4991459;28;19911;-74
2023/07/31 08:10:39;;;;;;;;;;;21.30;71.90;;;;;;4989871;28;19972;-74
2023/07/31 08:13:05;;;;;;;;;;;21.30;72.10;;;;;;4992938;28;20394;-74
2023/07/31 08:15:30;;;;;;;;;;;21.30;72.40;;;;;;4999749;28;20242;-74
2023/07/31 08:17:56;;;;;;;;;;;21.40;72.40;;;;;;4991727;28;19932;-75
2023/07/31 08:20:21;;;;;;;;;;;21.30;72.50;;;;;;5003897;28;19924;-74
2023/07/31 08:22:47;;;;;;;;;;;21.40;72.40;;;;;;4992421;28;19930;-73
2023/07/31 08:25:12;;;;;;;;;;;21.40;72.60;;;;;;4992364;28;19922;-73
2023/07/31 08:27:37;;;;;;;;;;;21.40;72.40;;;;;;4990489;28;19917;-75
2023/07/31 08:30:03;;;;;;;;;;;21.40;72.80;;;;;;5000472;28;20369;-73
2023/07/31 08:32:29;;;;;;;;;;;21.50;72.80;;;;;;5004219;28;20078;-73
2023/07/31 08:34:54;;;;;;;;;;;21.60;72.90;;;;;;4989216;28;20349;-74
2023/07/31 08:37:19;;;;;;;;;;;21.80;73.30;;;;;;4991162;28;20012;-75
2023/07/31 08:39:45;;;;;;;;;;;22.00;73.00;;;;;;4991565;28;20365;-75
2023/07/31 08:42:10;;;;;;;;;;;22.10;72.80;;;;;;4990688;28;19920;-73
2023/07/31 08:44:36;;;;;;;;;;;22.20;72.80;;;;;;4993994;28;19918;-73
2023/07/31 08:47:01;;;;;;;;;;;22.30;72.50;;;;;;4993905;28;19961;-74
2023/07/31 08:49:27;;;;;;;;;;;22.30;72.60;;;;;;4995451;28;19922;-69
2023/07/31 08:51:53;;;;;;;;;;;22.40;73.10;;;;;;5002136;28;20381;-70
2023/07/31 08:54:19;;;;;;;;;;;22.60;73.10;;;;;;4990976;28;20328;-69
2023/07/31 08:56:45;;;;;;;;;;;22.80;73.10;;;;;;5011060;28;19936;-69
2023/07/31 08:59:11;;;;;;;;;;;22.90;72.50;;;;;;4995750;28;20015;-69
2023/07/31 09:01:41;;;;;;;;;;;23.00;72.40;;;;;;5015134;28;19917;-68
2023/07/31 09:04:07;;;;;;;;;;;23.10;72.10;;;;;;4994792;28;19922;-69
2023/07/31 09:06:34;;;;;;;;;;;23.10;71.90;;;;;;5015151;28;20372;-69
2023/07/31 09:08:59;;;;;;;;;;;23.20;71.70;;;;;;5008105;28;19910;-68
2023/07/31 09:11:25;;;;;;;;;;;23.10;71.30;;;;;;4993056;28;19917;-68
2023/07/31 09:13:51;;;;;;;;;;;23.10;71.20;;;;;;4989528;28;20301;-70
2023/07/31 09:16:16;;;;;;;;;;;22.90;71.10;;;;;;4994669;28;19940;-71
2023/07/31 09:18:53;;;;;;;;;;;22.80;70.60;;;;;;4992482;28;19914;-71
2023/07/31 09:21:18;;;;;;;;;;;22.70;71.10;;;;;;4995047;28;19945;-69
2023/07/31 09:23:44;;;;;;;;;;;22.50;71.60;;;;;;4990330;28;19914;-70
2023/07/31 09:26:10;;;;;;;;;;;22.50;71.70;;;;;;4994023;28;19924;-70
2023/07/31 09:28:36;;;;;;;;;;;22.50;71.80;;;;;;4994354;28;19913;-69
2023/07/31 09:31:01;;;;;;;;;;;22.60;72.30;;;;;;5002936;28;20265;-69
2023/07/31 09:33:27;;;;;;;;;;;22.60;72.10;;;;;;4988280;28;19919;-70
2023/07/31 09:35:52;;;;;;;;;;;22.60;72.00;;;;;;5010821;28;19988;-69
2023/07/31 09:38:18;;;;;;;;;;;22.60;71.70;;;;;;5012396;28;19919;-69
2023/07/31 09:40:47;;;;;;;;;;;22.50;71.80;;;;;;4976557;28;20360;-69
2023/07/31 09:43:16;;;;;;;;;;;22.60;72.10;;;;;;4989386;28;19914;-68
2023/07/31 09:45:43;;;;;;;;;;;22.70;73.00;;;;;;5001465;28;20396;-68
2023/07/31 09:48:09;;;;;;;;;;;23.00;73.10;;;;;;4991878;28;19964;-68
2023/07/31 09:50:36;;;;;;;;;;;23.10;72.60;;;;;;4989786;28;19918;-68
2023/07/31 09:53:02;;;;;;;;;;;23.20;73.10;;;;;;4989841;28;19914;-68
2023/07/31 09:55:27;;;;;;;;;;;23.40;73.00;;;;;;5006745;28;20014;-69
2023/07/31 09:57:54;;;;;;;;;;;23.60;72.50;;;;;;5013650;28;19920;-68
2023/07/31 10:00:22;;;;;;;;;;;23.70;71.90;;;;;;4978165;28;19918;-69
2023/07/31 10:02:48;;;;;;;;;;;23.70;71.70;;;;;;4989536;28;20060;-69
2023/07/31 10:05:15;;;;;;;;;;;23.70;71.60;;;;;;5001033;28;20012;-68
2023/07/31 10:07:42;;;;;;;;;;;23.70;71.10;;;;;;4976723;28;19914;-68
2023/07/31 10:10:09;;;;;;;;;;;23.60;71.10;;;;;;5003489;28;19960;-68
2023/07/31 10:12:35;;;;;;;;;;;23.50;71.20;;;;;;4996319;28;19922;-69
2023/07/31 10:15:01;;;;;;;;;;;23.50;70.90;;;;;;4992898;28;19960;-68
2023/07/31 10:17:26;;;;;;;;;;;23.40;71.30;;;;;;4993415;28;19945;-68
2023/07/31 10:19:53;;;;;;;;;;;23.30;71.60;;;;;;4991705;28;19926;-68
2023/07/31 10:22:19;;;;;;;;;;;23.30;72.00;;;;;;4988931;28;20349;-69
2023/07/31 10:24:45;;;;;;;;;;;23.30;72.40;;;;;;4991049;28;19925;-70
2023/07/31 10:27:11;;;;;;;;;;;23.30;72.60;;;;;;4991580;28;20361;-70
2023/07/31 10:29:37;;;;;;;;;;;23.30;71.30;;;;;;4998776;28;19914;-70
2023/07/31 10:32:09;;;;;;;;;;;23.10;71.80;;;;;;5012026;28;20428;-69
2023/07/31 10:34:35;;;;;;;;;;;23.10;72.20;;;;;;4996079;28;19936;-69
2023/07/31 10:37:21;;;;;;;;;;;23.30;73.10;;;;;;5012812;28;19948;-69
2023/07/31 10:39:54;;;;;;;;;;;23.30;72.70;;;;;;5004753;28;20008;-69
2023/07/31 10:42:26;;;;;;;;;;;23.40;73.10;;;;;;5004120;28;19914;-69
2023/07/31 10:44:55;;;;;;;;;;;23.50;72.90;;;;;;4996217;28;19921;-70
2023/07/31 10:47:20;;;;;;;;;;;23.50;73.00;;;;;;4990142;28;20377;-70
2023/07/31 10:49:46;;;;;;;;;;;23.50;71.90;;;;;;4998851;28;19963;-69
2023/07/31 10:52:13;;;;;;;;;;;23.40;71.60;;;;;;4995904;28;19914;-71
2023/07/31 10:54:38;;;;;;;;;;;23.30;71.80;;;;;;4991843;28;19971;-69
2023/07/31 10:57:18;;;;;;;;;;;23.20;72.10;;;;;;4994279;28;19918;-69
2023/07/31 10:59:43;;;;;;;;;;;23.20;72.20;;;;;;4984298;28;19910;-70
2023/07/31 11:02:23;;;;;;;;;;;23.20;72.20;;;;;;4991446;28;19921;-70
2023/07/31 11:05:05;;;;;;;;;;;23.20;71.90;;;;;;4995966;28;19918;-71
2023/07/31 11:07:46;;;;;;;;;;;23.00;71.80;;;;;;4996187;28;19922;-72
2023/07/31 11:10:11;;;;;;;;;;;23.00;71.80;;;;;;5001610;28;20280;-72
2023/07/31 11:12:37;;;;;;;;;;;22.90;72.30;;;;;;5002308;28;19918;-72
2023/07/31 11:15:03;;;;;;;;;;;23.00;72.50;;;;;;5000973;28;19964;-72
2023/07/31 11:17:28;;;;;;;;;;;23.10;72.60;;;;;;5011881;28;19918;-73
2023/07/31 11:19:54;;;;;;;;;;;23.10;72.00;;;;;;5002628;28;19917;-73
2023/07/31 11:22:20;;;;;;;;;;;23.10;72.80;;;;;;5007782;28;19909;-73
2023/07/31 11:24:46;;;;;;;;;;;23.10;72.90;;;;;;4986307;28;19957;-73
2023/07/31 11:27:12;;;;;;;;;;;23.10;72.30;;;;;;4989368;28;19924;-73
2023/07/31 11:29:37;;;;;;;;;;;23.10;72.20;;;;;;4989732;28;20105;-74
2023/07/31 11:32:03;;;;;;;;;;;23.10;72.70;;;;;;4989922;28;19914;-74
2023/07/31 11:34:28;;;;;;;;;;;23.10;72.00;;;;;;4990873;28;19921;-73
2023/07/31 11:36:58;;;;;;;;;;;23.00;71.80;;;;;;4993234;28;19948;-72
2023/07/31 11:39:24;;;;;;;;;;;23.00;72.10;;;;;;4996474;28;19920;-73
2023/07/31 11:41:49;;;;;;;;;;;22.90;72.20;;;;;;4986179;28;19918;-73
2023/07/31 11:44:15;;;;;;;;;;;22.90;72.70;;;;;;4986422;28;19971;-73
2023/07/31 11:46:40;;;;;;;;;;;23.00;72.70;;;;;;4990329;28;19957;-73
2023/07/31 11:49:06;;;;;;;;;;;23.10;73.10;;;;;;4987776;28;20369;-73
2023/07/31 11:51:31;;;;;;;;;;;23.20;73.20;;;;;;4985881;28;20346;-73
2023/07/31 11:53:58;;;;;;;;;;;23.30;72.50;;;;;;4982107;28;19917;-73
2023/07/31 11:56:24;;;;;;;;;;;23.30;72.20;;;;;;5009902;28;20299;-73
2023/07/31 11:58:54;;;;;;;;;;;23.30;72.00;;;;;;4997814;28;19918;-72
2023/07/31 12:01:20;;;;;;;;;;;23.30;72.30;;;;;;4990893;28;19926;-73
2023/07/31 12:03:46;;;;;;;;;;;23.30;72.20;;;;;;4984304;28;19918;-73
2023/07/31 12:06:12;;;;;;;;;;;23.40;72.10;;;;;;4981709;28;19963;-73
2023/07/31 12:08:37;;;;;;;;;;;23.40;72.40;;;;;;4990609;28;20487;-73
2023/07/31 12:11:09;;;;;;;;;;;23.50;72.60;;;;;;4991787;28;19922;-73
2023/07/31 12:13:35;;;;;;;;;;;23.50;72.40;;;;;;4980992;28;19925;-73
2023/07/31 12:16:02;;;;;;;;;;;23.60;72.50;;;;;;4988213;28;19918;-72
2023/07/31 12:18:29;;;;;;;;;;;23.70;72.70;;;;;;4986901;28;20290;-73
2023/07/31 12:20:56;;;;;;;;;;;23.80;72.70;;;;;;4992011;28;19918;-72
2023/07/31 12:23:28;;;;;;;;;;;23.80;72.20;;;;;;4983391;28;19914;-72
2023/07/31 12:26:00;;;;;;;;;;;23.80;71.60;;;;;;4991520;28;19928;-72
2023/07/31 12:28:26;;;;;;;;;;;23.70;72.00;;;;;;4986529;28;20395;-72
2023/07/31 12:30:51;;;;;;;;;;;23.70;71.80;;;;;;4990141;28;19922;-73
2023/07/31 12:33:18;;;;;;;;;;;23.70;72.20;;;;;;4984664;28;19953;-73
2023/07/31 12:35:45;;;;;;;;;;;23.80;72.40;;;;;;4993171;28;19918;-73
2023/07/31 12:38:11;;;;;;;;;;;23.70;72.40;;;;;;4993979;28;19916;-72
2023/07/31 12:40:41;;;;;;;;;;;23.70;71.60;;;;;;4995127;28;19945;-71
2023/07/31 12:43:06;;;;;;;;;;;23.70;72.10;;;;;;4987361;28;19921;-73
2023/07/31 12:45:32;;;;;;;;;;;23.70;72.00;;;;;;4993660;28;19922;-73
2023/07/31 12:47:58;;;;;;;;;;;23.50;71.50;;;;;;4992674;28;20009;-73
2023/07/31 12:50:25;;;;;;;;;;;23.50;72.10;;;;;;4995323;28;19998;-73
2023/07/31 12:52:51;;;;;;;;;;;23.40;72.00;;;;;;4986010;28;20779;-74
2023/07/31 12:55:18;;;;;;;;;;;23.30;71.60;;;;;;5005393;28;19961;-72
2023/07/31 12:57:43;;;;;;;;;;;23.30;71.60;;;;;;5007994;28;20292;-72
2023/07/31 13:00:09;;;;;;;;;;;23.20;72.10;;;;;;5005067;28;19943;-73
2023/07/31 13:02:34;;;;;;;;;;;23.20;72.30;;;;;;5003313;28;19945;-72
2023/07/31 13:05:00;;;;;;;;;;;23.10;71.70;;;;;;4999982;28;19929;-72
2023/07/31 13:07:26;;;;;;;;;;;23.00;71.40;;;;;;5014269;28;20381;-72
2023/07/31 13:09:51;;;;;;;;;;;22.90;71.10;;;;;;4992544;28;20505;-73
2023/07/31 13:12:17;;;;;;;;;;;22.80;72.10;;;;;;4991724;28;19957;-73
2023/07/31 13:14:43;;;;;;;;;;;22.80;72.40;;;;;;4989349;28;19968;-73
2023/07/31 13:17:09;;;;;;;;;;;22.90;73.20;;;;;;4975236;28;20004;-76
2023/07/31 13:19:34;;;;;;;;;;;23.10;73.70;;;;;;4991529;28;20428;-72
2023/07/31 13:21:59;;;;;;;;;;;23.50;74.60;;;;;;4993419;28;20349;-73
2023/07/31 13:24:25;;;;;;;;;;;23.80;74.00;;;;;;4989611;28;20277;-71
2023/07/31 13:26:50;;;;;;;;;;;24.20;73.60;;;;;;5005805;28;20378;-71
2023/07/31 13:29:16;;;;;;;;;;;24.40;73.40;;;;;;4995578;28;19913;-71
2023/07/31 13:31:41;;;;;;;;;;;24.70;73.00;;;;;;4996343;28;19918;-71
2023/07/31 13:34:07;;;;;;;;;;;25.00;72.60;;;;;;4984001;28;19988;-71
2023/07/31 13:36:33;;;;;;;;;;;25.30;72.50;;;;;;4993231;28;19918;-70
2023/07/31 13:38:59;;;;;;;;;;;25.50;72.10;;;;;;4991540;28;20397;-70
2023/07/31 13:41:25;;;;;;;;;;;25.70;71.20;;;;;;4989423;28;19925;-70
2023/07/31 13:43:50;;;;;;;;;;;25.80;70.90;;;;;;4986086;28;19928;-70
2023/07/31 13:46:16;;;;;;;;;;;25.70;70.80;;;;;;4995189;28;19933;-70
2023/07/31 13:48:41;;;;;;;;;;;25.70;71.00;;;;;;4993121;28;19937;-70
2023/07/31 13:51:06;;;;;;;;;;;25.80;71.00;;;;;;4998458;28;19971;-70
2023/07/31 13:53:32;;;;;;;;;;;25.80;70.60;;;;;;4987078;28;20365;-70
2023/07/31 13:55:57;;;;;;;;;;;25.80;70.30;;;;;;5001310;28;19922;-71
2023/07/31 13:58:23;;;;;;;;;;;25.70;70.20;;;;;;4993160;28;19913;-70
2023/07/31 14:00:48;;;;;;;;;;;25.60;69.90;;;;;;5003682;28;19925;-70
2023/07/31 14:03:14;;;;;;;;;;;25.50;69.90;;;;;;4969357;28;20004;-70
2023/07/31 14:05:39;;;;;;;;;;;25.50;70.30;;;;;;5006333;28;19921;-70
2023/07/31 14:08:05;;;;;;;;;;;25.30;70.20;;;;;;4993519;28;19914;-70
2023/07/31 14:10:30;;;;;;;;;;;25.30;70.70;;;;;;4990413;28;19953;-70